sensor_id;sensor_type;location;lat;lon;timestamp;P1;durP1;ratioP1;P2;durP2;ratioP2
1811;SDS011;904;47.814;11.134;2024-01-27T00:00:33;2.40;;;1.10;;
1811;SDS011;904;47.814;11.134;2024-01-27T00:03:01;3.75;;;1.10;;
1811;SDS011;904;47.814;11.134;2024-01-27T00:05:29;2.53;;;1.20;;
1811;SDS011;904;47.814;11.134;2024-01-27T00:07:55;5.97;;;1.60;;
1811;SDS011;904;47.814;11.134;2024-01-27T00:10:22;3.65;;;1.30;;
1811;SDS011;904;47.814;11.134;2024-01-27T00:12:49;4.82;;;1.63;;
1811;SDS011;904;47.814;11.134;2024-01-27T00:15:17;3.38;;;1.73;;
1811;SDS011;904;47.814;11.134;2024-01-27T00:17:44;4.05;;;1.30;;
1811;SDS011;904;47.814;11.134;2024-01-27T00:20:12;3.15;;;1.50;;
1811;SDS011;904;47.814;11.134;2024-01-27T00:22:39;3.60;;;1.65;;
1811;SDS011;904;47.814;11.134;2024-01-27T00:25:06;4.38;;;1.58;;
1811;SDS011;904;47.814;11.134;2024-01-27T00:27:33;3.83;;;1.17;;
1811;SDS011;904;47.814;11.134;2024-01-27T00:30:00;6.03;;;1.55;;
1811;SDS011;904;47.814;11.134;2024-01-27T00:32:27;6.50;;;1.42;;
1811;SDS011;904;47.814;11.134;2024-01-27T00:34:54;2.50;;;1.30;;
1811;SDS011;904;47.814;11.134;2024-01-27T00:37:22;2.30;;;1.30;;
1811;SDS011;904;47.814;11.134;2024-01-27T00:39:50;3.00;;;1.50;;
1811;SDS011;904;47.814;11.134;2024-01-27T00:42:17;6.38;;;1.35;;
1811;SDS011;904;47.814;11.134;2024-01-27T00:44:49;6.93;;;1.92;;
1811;SDS011;904;47.814;11.134;2024-01-27T00:47:16;4.97;;;1.65;;
1811;SDS011;904;47.814;11.134;2024-01-27T00:49:43;3.50;;;1.48;;
1811;SDS011;904;47.814;11.134;2024-01-27T00:52:10;2.63;;;1.45;;
1811;SDS011;904;47.814;11.134;2024-01-27T00:54:38;4.30;;;1.60;;
1811;SDS011;904;47.814;11.134;2024-01-27T00:57:05;3.33;;;1.83;;
1811;SDS011;904;47.814;11.134;2024-01-27T00:59:32;3.10;;;1.35;;
1811;SDS011;904;47.814;11.134;2024-01-27T01:01:59;3.75;;;1.70;;
1811;SDS011;904;47.814;11.134;2024-01-27T01:04:25;4.68;;;2.22;;
1811;SDS011;904;47.814;11.134;2024-01-27T01:06:53;3.15;;;1.63;;
1811;SDS011;904;47.814;11.134;2024-01-27T01:09:20;3.50;;;1.52;;
1811;SDS011;904;47.814;11.134;2024-01-27T01:11:48;4.53;;;1.42;;
1811;SDS011;904;47.814;11.134;2024-01-27T01:14:15;4.00;;;1.52;;
1811;SDS011;904;47.814;11.134;2024-01-27T01:16:42;7.45;;;2.25;;
1811;SDS011;904;47.814;11.134;2024-01-27T01:19:09;3.67;;;1.23;;
1811;SDS011;904;47.814;11.134;2024-01-27T01:21:36;3.38;;;1.80;;
1811;SDS011;904;47.814;11.134;2024-01-27T01:24:03;3.15;;;1.75;;
1811;SDS011;904;47.814;11.134;2024-01-27T01:26:30;5.78;;;1.80;;
1811;SDS011;904;47.814;11.134;2024-01-27T01:28:58;5.80;;;1.40;;
1811;SDS011;904;47.814;11.134;2024-01-27T01:31:25;3.20;;;1.73;;
1811;SDS011;904;47.814;11.134;2024-01-27T01:33:52;9.20;;;1.80;;
1811;SDS011;904;47.814;11.134;2024-01-27T01:36:19;5.53;;;1.98;;
1811;SDS011;904;47.814;11.134;2024-01-27T01:38:46;4.40;;;2.20;;
1811;SDS011;904;47.814;11.134;2024-01-27T01:41:12;7.25;;;1.80;;
1811;SDS011;904;47.814;11.134;2024-01-27T01:43:39;4.30;;;1.65;;
1811;SDS011;904;47.814;11.134;2024-01-27T01:46:08;4.25;;;1.55;;
1811;SDS011;904;47.814;11.134;2024-01-27T01:48:35;2.95;;;1.60;;
1811;SDS011;904;47.814;11.134;2024-01-27T01:51:02;5.97;;;1.65;;
1811;SDS011;904;47.814;11.134;2024-01-27T01:53:29;6.28;;;2.05;;
1811;SDS011;904;47.814;11.134;2024-01-27T01:55:57;5.18;;;2.70;;
1811;SDS011;904;47.814;11.134;2024-01-27T01:58:24;3.70;;;1.92;;
1811;SDS011;904;47.814;11.134;2024-01-27T02:00:51;5.15;;;1.80;;
1811;SDS011;904;47.814;11.134;2024-01-27T02:03:19;7.30;;;2.30;;
1811;SDS011;904;47.814;11.134;2024-01-27T02:05:46;3.40;;;1.80;;
1811;SDS011;904;47.814;11.134;2024-01-27T02:08:13;3.17;;;1.63;;
1811;SDS011;904;47.814;11.134;2024-01-27T02:10:40;2.25;;;1.50;;
1811;SDS011;904;47.814;11.134;2024-01-27T02:13:15;5.35;;;3.03;;
1811;SDS011;904;47.814;11.134;2024-01-27T02:15:44;5.70;;;1.85;;
1811;SDS011;904;47.814;11.134;2024-01-27T02:18:11;4.15;;;1.70;;
1811;SDS011;904;47.814;11.134;2024-01-27T02:20:40;2.92;;;1.42;;
1811;SDS011;904;47.814;11.134;2024-01-27T02:23:07;8.45;;;1.70;;
1811;SDS011;904;47.814;11.134;2024-01-27T02:25:35;3.30;;;1.80;;
1811;SDS011;904;47.814;11.134;2024-01-27T02:28:02;3.25;;;1.50;;
1811;SDS011;904;47.814;11.134;2024-01-27T02:30:29;4.88;;;1.88;;
1811;SDS011;904;47.814;11.134;2024-01-27T02:32:57;3.13;;;1.45;;
1811;SDS011;904;47.814;11.134;2024-01-27T02:35:26;3.72;;;2.30;;
1811;SDS011;904;47.814;11.134;2024-01-27T02:37:53;3.00;;;1.67;;
1811;SDS011;904;47.814;11.134;2024-01-27T02:40:23;2.55;;;1.60;;
1811;SDS011;904;47.814;11.134;2024-01-27T02:42:55;3.38;;;1.80;;
1811;SDS011;904;47.814;11.134;2024-01-27T02:45:22;5.25;;;1.85;;
1811;SDS011;904;47.814;11.134;2024-01-27T02:47:52;3.78;;;1.40;;
1811;SDS011;904;47.814;11.134;2024-01-27T02:50:19;6.28;;;2.22;;
1811;SDS011;904;47.814;11.134;2024-01-27T02:52:46;10.93;;;3.83;;
1811;SDS011;904;47.814;11.134;2024-01-27T02:55:13;7.57;;;2.38;;
1811;SDS011;904;47.814;11.134;2024-01-27T02:57:40;8.20;;;3.00;;
1811;SDS011;904;47.814;11.134;2024-01-27T03:00:09;9.48;;;3.80;;
1811;SDS011;904;47.814;11.134;2024-01-27T03:02:36;8.02;;;3.88;;
1811;SDS011;904;47.814;11.134;2024-01-27T03:05:04;5.40;;;3.28;;
1811;SDS011;904;47.814;11.134;2024-01-27T03:07:31;5.55;;;2.80;;
1811;SDS011;904;47.814;11.134;2024-01-27T03:09:58;6.65;;;2.65;;
1811;SDS011;904;47.814;11.134;2024-01-27T03:12:32;6.70;;;2.00;;
1811;SDS011;904;47.814;11.134;2024-01-27T03:14:59;7.32;;;2.65;;
1811;SDS011;904;47.814;11.134;2024-01-27T03:17:27;4.68;;;2.38;;
1811;SDS011;904;47.814;11.134;2024-01-27T03:19:54;6.40;;;2.20;;
1811;SDS011;904;47.814;11.134;2024-01-27T03:22:21;3.85;;;1.90;;
1811;SDS011;904;47.814;11.134;2024-01-27T03:24:48;5.82;;;2.10;;
1811;SDS011;904;47.814;11.134;2024-01-27T03:27:16;3.35;;;1.77;;
1811;SDS011;904;47.814;11.134;2024-01-27T03:29:43;5.85;;;2.40;;
1811;SDS011;904;47.814;11.134;2024-01-27T03:32:11;4.75;;;2.53;;
1811;SDS011;904;47.814;11.134;2024-01-27T03:34:43;5.53;;;2.22;;
1811;SDS011;904;47.814;11.134;2024-01-27T03:37:10;4.97;;;1.98;;
1811;SDS011;904;47.814;11.134;2024-01-27T03:39:37;3.75;;;2.00;;
1811;SDS011;904;47.814;11.134;2024-01-27T03:42:07;3.83;;;2.20;;
1811;SDS011;904;47.814;11.134;2024-01-27T03:44:34;4.47;;;2.15;;
1811;SDS011;904;47.814;11.134;2024-01-27T03:47:01;5.07;;;2.65;;
1811;SDS011;904;47.814;11.134;2024-01-27T03:49:29;4.47;;;2.28;;
1811;SDS011;904;47.814;11.134;2024-01-27T03:51:57;6.43;;;1.98;;
1811;SDS011;904;47.814;11.134;2024-01-27T03:54:24;5.20;;;2.28;;
1811;SDS011;904;47.814;11.134;2024-01-27T03:56:51;3.13;;;1.80;;
1811;SDS011;904;47.814;11.134;2024-01-27T03:59:18;5.22;;;2.05;;
1811;SDS011;904;47.814;11.134;2024-01-27T04:01:44;3.75;;;2.35;;
1811;SDS011;904;47.814;11.134;2024-01-27T04:04:11;5.85;;;2.50;;
1811;SDS011;904;47.814;11.134;2024-01-27T04:06:39;6.97;;;2.78;;
1811;SDS011;904;47.814;11.134;2024-01-27T04:09:08;8.45;;;2.70;;
1811;SDS011;904;47.814;11.134;2024-01-27T04:11:35;4.05;;;2.63;;
1811;SDS011;904;47.814;11.134;2024-01-27T04:14:03;3.42;;;2.10;;
1811;SDS011;904;47.814;11.134;2024-01-27T04:16:30;5.50;;;2.33;;
1811;SDS011;904;47.814;11.134;2024-01-27T04:18:57;2.92;;;2.10;;
1811;SDS011;904;47.814;11.134;2024-01-27T04:21:24;4.38;;;2.60;;
1811;SDS011;904;47.814;11.134;2024-01-27T04:23:51;5.88;;;2.30;;
1811;SDS011;904;47.814;11.134;2024-01-27T04:26:20;4.75;;;1.90;;
1811;SDS011;904;47.814;11.134;2024-01-27T04:28:47;3.60;;;2.30;;
1811;SDS011;904;47.814;11.134;2024-01-27T04:31:14;5.45;;;2.22;;
1811;SDS011;904;47.814;11.134;2024-01-27T04:33:41;3.55;;;1.98;;
1811;SDS011;904;47.814;11.134;2024-01-27T04:36:08;5.18;;;2.30;;
1811;SDS011;904;47.814;11.134;2024-01-27T04:38:35;2.60;;;2.00;;
1811;SDS011;904;47.814;11.134;2024-01-27T04:41:02;4.28;;;2.63;;
1811;SDS011;904;47.814;11.134;2024-01-27T04:43:30;3.53;;;2.53;;
1811;SDS011;904;47.814;11.134;2024-01-27T04:45:58;9.02;;;2.40;;
1811;SDS011;904;47.814;11.134;2024-01-27T04:48:24;4.95;;;2.92;;
1811;SDS011;904;47.814;11.134;2024-01-27T04:50:51;3.47;;;2.22;;
1811;SDS011;904;47.814;11.134;2024-01-27T04:53:18;4.20;;;2.17;;
1811;SDS011;904;47.814;11.134;2024-01-27T04:55:45;3.17;;;2.05;;
1811;SDS011;904;47.814;11.134;2024-01-27T04:58:12;3.97;;;2.33;;
1811;SDS011;904;47.814;11.134;2024-01-27T05:00:40;3.63;;;2.40;;
1811;SDS011;904;47.814;11.134;2024-01-27T05:03:07;3.33;;;2.50;;
1811;SDS011;904;47.814;11.134;2024-01-27T05:05:40;5.70;;;2.25;;
1811;SDS011;904;47.814;11.134;2024-01-27T05:08:07;3.17;;;2.33;;
1811;SDS011;904;47.814;11.134;2024-01-27T05:10:34;4.28;;;2.17;;
1811;SDS011;904;47.814;11.134;2024-01-27T05:13:01;3.25;;;2.08;;
1811;SDS011;904;47.814;11.134;2024-01-27T05:15:28;6.50;;;2.75;;
1811;SDS011;904;47.814;11.134;2024-01-27T05:17:57;3.20;;;2.30;;
1811;SDS011;904;47.814;11.134;2024-01-27T05:20:24;4.00;;;2.33;;
1811;SDS011;904;47.814;11.134;2024-01-27T05:22:50;12.30;;;2.90;;
1811;SDS011;904;47.814;11.134;2024-01-27T05:25:17;6.55;;;2.80;;
1811;SDS011;904;47.814;11.134;2024-01-27T05:27:44;4.28;;;3.50;;
1811;SDS011;904;47.814;11.134;2024-01-27T05:30:12;3.55;;;1.92;;
1811;SDS011;904;47.814;11.134;2024-01-27T05:32:39;5.45;;;2.42;;
1811;SDS011;904;47.814;11.134;2024-01-27T05:35:08;5.63;;;2.83;;
1811;SDS011;904;47.814;11.134;2024-01-27T05:37:35;4.90;;;2.95;;
1811;SDS011;904;47.814;11.134;2024-01-27T05:40:04;4.20;;;3.00;;
1811;SDS011;904;47.814;11.134;2024-01-27T05:42:32;4.00;;;2.67;;
1811;SDS011;904;47.814;11.134;2024-01-27T05:44:59;4.55;;;2.38;;
1811;SDS011;904;47.814;11.134;2024-01-27T05:47:26;6.22;;;3.45;;
1811;SDS011;904;47.814;11.134;2024-01-27T05:49:53;6.30;;;3.17;;
1811;SDS011;904;47.814;11.134;2024-01-27T05:52:22;4.60;;;3.35;;
1811;SDS011;904;47.814;11.134;2024-01-27T05:54:50;4.40;;;2.28;;
1811;SDS011;904;47.814;11.134;2024-01-27T05:57:17;4.15;;;3.22;;
1811;SDS011;904;47.814;11.134;2024-01-27T05:59:44;5.32;;;2.30;;
1811;SDS011;904;47.814;11.134;2024-01-27T06:02:11;5.20;;;2.65;;
1811;SDS011;904;47.814;11.134;2024-01-27T06:04:38;5.65;;;3.13;;
1811;SDS011;904;47.814;11.134;2024-01-27T06:07:05;4.38;;;2.63;;
1811;SDS011;904;47.814;11.134;2024-01-27T06:09:34;5.55;;;2.55;;
1811;SDS011;904;47.814;11.134;2024-01-27T06:12:03;4.82;;;2.83;;
1811;SDS011;904;47.814;11.134;2024-01-27T06:14:31;6.85;;;3.55;;
1811;SDS011;904;47.814;11.134;2024-01-27T06:16:58;4.82;;;2.55;;
1811;SDS011;904;47.814;11.134;2024-01-27T06:19:25;3.85;;;2.10;;
1811;SDS011;904;47.814;11.134;2024-01-27T06:21:52;6.35;;;2.60;;
1811;SDS011;904;47.814;11.134;2024-01-27T06:24:19;4.40;;;2.80;;
1811;SDS011;904;47.814;11.134;2024-01-27T06:26:47;3.78;;;2.60;;
1811;SDS011;904;47.814;11.134;2024-01-27T06:29:14;4.32;;;2.55;;
1811;SDS011;904;47.814;11.134;2024-01-27T06:31:41;4.90;;;2.47;;
1811;SDS011;904;47.814;11.134;2024-01-27T06:34:08;6.85;;;3.65;;
1811;SDS011;904;47.814;11.134;2024-01-27T06:36:35;4.20;;;2.83;;
1811;SDS011;904;47.814;11.134;2024-01-27T06:39:02;5.10;;;2.63;;
1811;SDS011;904;47.814;11.134;2024-01-27T06:41:29;4.32;;;2.92;;
1811;SDS011;904;47.814;11.134;2024-01-27T06:43:57;4.13;;;2.97;;
1811;SDS011;904;47.814;11.134;2024-01-27T06:46:24;4.45;;;3.20;;
1811;SDS011;904;47.814;11.134;2024-01-27T06:48:51;5.82;;;3.50;;
1811;SDS011;904;47.814;11.134;2024-01-27T06:51:18;6.68;;;2.65;;
1811;SDS011;904;47.814;11.134;2024-01-27T06:53:44;4.20;;;3.15;;
1811;SDS011;904;47.814;11.134;2024-01-27T06:56:13;4.07;;;2.95;;
1811;SDS011;904;47.814;11.134;2024-01-27T06:58:40;4.22;;;2.50;;
1811;SDS011;904;47.814;11.134;2024-01-27T07:01:08;8.13;;;4.45;;
1811;SDS011;904;47.814;11.134;2024-01-27T07:03:35;3.92;;;2.80;;
1811;SDS011;904;47.814;11.134;2024-01-27T07:06:04;4.88;;;2.80;;
1811;SDS011;904;47.814;11.134;2024-01-27T07:08:31;3.72;;;2.55;;
1811;SDS011;904;47.814;11.134;2024-01-27T07:10:58;4.07;;;2.60;;
1811;SDS011;904;47.814;11.134;2024-01-27T07:13:25;7.80;;;3.35;;
1811;SDS011;904;47.814;11.134;2024-01-27T07:15:54;6.53;;;3.55;;
1811;SDS011;904;47.814;11.134;2024-01-27T07:18:23;4.75;;;3.70;;
1811;SDS011;904;47.814;11.134;2024-01-27T07:20:51;10.32;;;3.63;;
1811;SDS011;904;47.814;11.134;2024-01-27T07:23:17;6.63;;;3.22;;
1811;SDS011;904;47.814;11.134;2024-01-27T07:25:44;5.13;;;3.22;;
1811;SDS011;904;47.814;11.134;2024-01-27T07:28:11;8.80;;;4.13;;
1811;SDS011;904;47.814;11.134;2024-01-27T07:30:40;8.00;;;4.68;;
1811;SDS011;904;47.814;11.134;2024-01-27T07:33:07;5.38;;;3.97;;
1811;SDS011;904;47.814;11.134;2024-01-27T07:35:36;6.50;;;3.30;;
1811;SDS011;904;47.814;11.134;2024-01-27T07:38:03;7.13;;;3.90;;
1811;SDS011;904;47.814;11.134;2024-01-27T07:40:31;4.43;;;3.20;;
1811;SDS011;904;47.814;11.134;2024-01-27T07:42:58;7.00;;;3.90;;
1811;SDS011;904;47.814;11.134;2024-01-27T07:45:25;7.85;;;3.20;;
1811;SDS011;904;47.814;11.134;2024-01-27T07:47:52;7.05;;;3.78;;
1811;SDS011;904;47.814;11.134;2024-01-27T07:50:19;5.50;;;3.67;;
1811;SDS011;904;47.814;11.134;2024-01-27T07:52:49;8.63;;;4.40;;
1811;SDS011;904;47.814;11.134;2024-01-27T07:55:16;8.52;;;5.28;;
1811;SDS011;904;47.814;11.134;2024-01-27T07:57:43;5.50;;;4.30;;
1811;SDS011;904;47.814;11.134;2024-01-27T08:00:11;6.60;;;4.47;;
1811;SDS011;904;47.814;11.134;2024-01-27T08:02:40;5.00;;;4.30;;
1811;SDS011;904;47.814;11.134;2024-01-27T08:05:07;7.53;;;4.78;;
1811;SDS011;904;47.814;11.134;2024-01-27T08:07:34;4.47;;;3.25;;
1811;SDS011;904;47.814;11.134;2024-01-27T08:10:04;4.30;;;3.50;;
1811;SDS011;904;47.814;11.134;2024-01-27T08:12:31;6.35;;;3.85;;
1811;SDS011;904;47.814;11.134;2024-01-27T08:14:58;8.05;;;3.60;;
1811;SDS011;904;47.814;11.134;2024-01-27T08:17:25;4.75;;;3.25;;
1811;SDS011;904;47.814;11.134;2024-01-27T08:19:52;5.05;;;3.38;;
1811;SDS011;904;47.814;11.134;2024-01-27T08:22:19;6.50;;;3.83;;
1811;SDS011;904;47.814;11.134;2024-01-27T08:24:46;4.50;;;3.50;;
1811;SDS011;904;47.814;11.134;2024-01-27T08:27:14;6.25;;;3.63;;
1811;SDS011;904;47.814;11.134;2024-01-27T08:29:41;5.78;;;3.60;;
1811;SDS011;904;47.814;11.134;2024-01-27T08:32:08;6.05;;;3.22;;
1811;SDS011;904;47.814;11.134;2024-01-27T08:34:35;5.15;;;3.17;;
1811;SDS011;904;47.814;11.134;2024-01-27T08:37:02;6.32;;;4.25;;
1811;SDS011;904;47.814;11.134;2024-01-27T08:39:42;4.90;;;3.42;;
1811;SDS011;904;47.814;11.134;2024-01-27T08:42:12;8.93;;;3.60;;
1811;SDS011;904;47.814;11.134;2024-01-27T08:44:40;5.18;;;3.63;;
1811;SDS011;904;47.814;11.134;2024-01-27T08:47:07;5.05;;;3.63;;
1811;SDS011;904;47.814;11.134;2024-01-27T08:49:34;6.65;;;3.65;;
1811;SDS011;904;47.814;11.134;2024-01-27T08:52:01;5.50;;;4.03;;
1811;SDS011;904;47.814;11.134;2024-01-27T08:54:28;5.82;;;3.80;;
1811;SDS011;904;47.814;11.134;2024-01-27T08:56:55;4.45;;;4.05;;
1811;SDS011;904;47.814;11.134;2024-01-27T08:59:22;9.10;;;5.32;;
1811;SDS011;904;47.814;11.134;2024-01-27T09:01:52;5.82;;;5.22;;
1811;SDS011;904;47.814;11.134;2024-01-27T09:04:19;8.57;;;5.40;;
1811;SDS011;904;47.814;11.134;2024-01-27T09:06:46;8.00;;;4.90;;
1811;SDS011;904;47.814;11.134;2024-01-27T09:09:13;8.63;;;6.70;;
1811;SDS011;904;47.814;11.134;2024-01-27T09:11:40;10.00;;;5.13;;
1811;SDS011;904;47.814;11.134;2024-01-27T09:14:07;7.40;;;5.10;;
1811;SDS011;904;47.814;11.134;2024-01-27T09:16:35;8.93;;;4.87;;
1811;SDS011;904;47.814;11.134;2024-01-27T09:19:03;8.03;;;5.87;;
1811;SDS011;904;47.814;11.134;2024-01-27T09:21:30;10.10;;;5.00;;
1811;SDS011;904;47.814;11.134;2024-01-27T09:23:57;7.27;;;5.53;;
1811;SDS011;904;47.814;11.134;2024-01-27T09:26:26;5.80;;;4.27;;
1811;SDS011;904;47.814;11.134;2024-01-27T09:28:53;8.27;;;5.77;;
1811;SDS011;904;47.814;11.134;2024-01-27T09:31:20;5.70;;;4.40;;
1811;SDS011;904;47.814;11.134;2024-01-27T09:33:48;8.37;;;5.00;;
1811;SDS011;904;47.814;11.134;2024-01-27T09:36:18;5.80;;;4.30;;
1811;SDS011;904;47.814;11.134;2024-01-27T09:38:45;6.07;;;3.27;;
1811;SDS011;904;47.814;11.134;2024-01-27T09:41:12;8.57;;;4.13;;
1811;SDS011;904;47.814;11.134;2024-01-27T09:43:41;8.07;;;5.30;;
1811;SDS011;904;47.814;11.134;2024-01-27T09:46:10;8.50;;;5.33;;
1811;SDS011;904;47.814;11.134;2024-01-27T09:48:37;7.60;;;5.20;;
1811;SDS011;904;47.814;11.134;2024-01-27T09:51:04;6.30;;;4.83;;
1811;SDS011;904;47.814;11.134;2024-01-27T09:53:35;10.00;;;4.73;;
1811;SDS011;904;47.814;11.134;2024-01-27T09:56:03;5.90;;;4.10;;
1811;SDS011;904;47.814;11.134;2024-01-27T09:58:30;7.47;;;4.60;;
1811;SDS011;904;47.814;11.134;2024-01-27T10:00:58;6.53;;;5.00;;
1811;SDS011;904;47.814;11.134;2024-01-27T10:03:26;5.77;;;4.37;;
1811;SDS011;904;47.814;11.134;2024-01-27T10:05:55;11.20;;;6.30;;
1811;SDS011;904;47.814;11.134;2024-01-27T10:08:23;9.20;;;4.87;;
1811;SDS011;904;47.814;11.134;2024-01-27T10:10:55;7.77;;;4.70;;
1811;SDS011;904;47.814;11.134;2024-01-27T10:13:23;13.33;;;4.90;;
1811;SDS011;904;47.814;11.134;2024-01-27T10:16:01;8.73;;;4.87;;
1811;SDS011;904;47.814;11.134;2024-01-27T10:18:28;6.30;;;3.90;;
1811;SDS011;904;47.814;11.134;2024-01-27T10:20:56;15.37;;;4.93;;
1811;SDS011;904;47.814;11.134;2024-01-27T10:23:23;6.93;;;4.43;;
1811;SDS011;904;47.814;11.134;2024-01-27T10:25:52;9.50;;;4.13;;
1811;SDS011;904;47.814;11.134;2024-01-27T10:28:19;7.93;;;4.27;;
1811;SDS011;904;47.814;11.134;2024-01-27T10:30:47;8.10;;;4.30;;
1811;SDS011;904;47.814;11.134;2024-01-27T10:33:14;6.90;;;3.70;;
1811;SDS011;904;47.814;11.134;2024-01-27T10:35:42;8.77;;;6.13;;
1811;SDS011;904;47.814;11.134;2024-01-27T10:38:10;10.90;;;4.80;;
1811;SDS011;904;47.814;11.134;2024-01-27T10:40:37;11.23;;;4.70;;
1811;SDS011;904;47.814;11.134;2024-01-27T10:43:06;11.23;;;4.90;;
1811;SDS011;904;47.814;11.134;2024-01-27T10:45:34;6.83;;;4.17;;
1811;SDS011;904;47.814;11.134;2024-01-27T10:48:03;11.60;;;4.40;;
1811;SDS011;904;47.814;11.134;2024-01-27T10:50:32;9.37;;;4.10;;
1811;SDS011;904;47.814;11.134;2024-01-27T10:53:03;8.87;;;4.77;;
1811;SDS011;904;47.814;11.134;2024-01-27T10:55:31;10.37;;;4.47;;
1811;SDS011;904;47.814;11.134;2024-01-27T10:58:01;9.50;;;4.20;;
1811;SDS011;904;47.814;11.134;2024-01-27T11:00:30;7.20;;;3.53;;
1811;SDS011;904;47.814;11.134;2024-01-27T11:02:58;9.53;;;4.17;;
1811;SDS011;904;47.814;11.134;2024-01-27T11:05:27;6.10;;;4.10;;
1811;SDS011;904;47.814;11.134;2024-01-27T11:07:55;9.10;;;5.00;;
1811;SDS011;904;47.814;11.134;2024-01-27T11:10:23;10.47;;;3.60;;
1811;SDS011;904;47.814;11.134;2024-01-27T11:12:52;6.77;;;4.10;;
1811;SDS011;904;47.814;11.134;2024-01-27T11:15:21;7.17;;;4.50;;
1811;SDS011;904;47.814;11.134;2024-01-27T11:17:49;7.30;;;3.73;;
1811;SDS011;904;47.814;11.134;2024-01-27T11:20:16;10.50;;;5.30;;
1811;SDS011;904;47.814;11.134;2024-01-27T11:22:44;5.80;;;3.60;;
1811;SDS011;904;47.814;11.134;2024-01-27T11:25:14;7.20;;;3.47;;
1811;SDS011;904;47.814;11.134;2024-01-27T11:27:43;6.23;;;3.37;;
1811;SDS011;904;47.814;11.134;2024-01-27T11:30:24;6.53;;;3.73;;
1811;SDS011;904;47.814;11.134;2024-01-27T11:32:55;9.90;;;4.50;;
1811;SDS011;904;47.814;11.134;2024-01-27T11:35:22;12.40;;;4.00;;
1811;SDS011;904;47.814;11.134;2024-01-27T11:37:49;8.87;;;4.07;;
1811;SDS011;904;47.814;11.134;2024-01-27T11:40:17;12.93;;;4.40;;
1811;SDS011;904;47.814;11.134;2024-01-27T11:42:53;10.20;;;4.83;;
1811;SDS011;904;47.814;11.134;2024-01-27T11:45:21;8.37;;;3.83;;
1811;SDS011;904;47.814;11.134;2024-01-27T11:47:49;8.50;;;4.10;;
1811;SDS011;904;47.814;11.134;2024-01-27T11:50:18;15.87;;;4.53;;
1811;SDS011;904;47.814;11.134;2024-01-27T11:52:46;10.67;;;7.53;;
1811;SDS011;904;47.814;11.134;2024-01-27T11:55:13;10.20;;;6.60;;
1811;SDS011;904;47.814;11.134;2024-01-27T11:57:41;11.33;;;6.27;;
1811;SDS011;904;47.814;11.134;2024-01-27T12:00:08;11.67;;;4.67;;
1811;SDS011;904;47.814;11.134;2024-01-27T12:02:36;8.33;;;5.03;;
1811;SDS011;904;47.814;11.134;2024-01-27T12:05:04;12.30;;;4.97;;
1811;SDS011;904;47.814;11.134;2024-01-27T12:07:32;8.40;;;3.90;;
1811;SDS011;904;47.814;11.134;2024-01-27T12:09:59;8.47;;;3.70;;
1811;SDS011;904;47.814;11.134;2024-01-27T12:12:27;10.87;;;3.53;;
1811;SDS011;904;47.814;11.134;2024-01-27T12:14:55;8.80;;;3.57;;
1811;SDS011;904;47.814;11.134;2024-01-27T12:17:24;6.27;;;3.90;;
1811;SDS011;904;47.814;11.134;2024-01-27T12:19:53;6.40;;;3.10;;
1811;SDS011;904;47.814;11.134;2024-01-27T12:22:23;3.90;;;2.93;;
1811;SDS011;904;47.814;11.134;2024-01-27T12:24:52;7.50;;;4.30;;
1811;SDS011;904;47.814;11.134;2024-01-27T12:27:19;7.77;;;3.83;;
1811;SDS011;904;47.814;11.134;2024-01-27T12:29:47;6.43;;;3.37;;
1811;SDS011;904;47.814;11.134;2024-01-27T12:32:15;6.93;;;3.20;;
1811;SDS011;904;47.814;11.134;2024-01-27T12:34:43;5.80;;;2.70;;
1811;SDS011;904;47.814;11.134;2024-01-27T12:37:13;7.13;;;3.73;;
1811;SDS011;904;47.814;11.134;2024-01-27T12:39:42;8.93;;;3.17;;
1811;SDS011;904;47.814;11.134;2024-01-27T12:42:17;12.73;;;4.70;;
1811;SDS011;904;47.814;11.134;2024-01-27T12:44:44;6.50;;;3.27;;
1811;SDS011;904;47.814;11.134;2024-01-27T12:47:11;6.97;;;3.60;;
1811;SDS011;904;47.814;11.134;2024-01-27T12:49:39;10.60;;;3.93;;
1811;SDS011;904;47.814;11.134;2024-01-27T12:52:07;7.53;;;3.67;;
1811;SDS011;904;47.814;11.134;2024-01-27T12:54:33;10.10;;;3.70;;
1811;SDS011;904;47.814;11.134;2024-01-27T12:57:01;8.83;;;4.47;;
1811;SDS011;904;47.814;11.134;2024-01-27T12:59:30;6.07;;;3.27;;
1811;SDS011;904;47.814;11.134;2024-01-27T13:01:57;5.53;;;4.20;;
1811;SDS011;904;47.814;11.134;2024-01-27T13:04:25;5.07;;;2.80;;
1811;SDS011;904;47.814;11.134;2024-01-27T13:06:52;6.40;;;3.00;;
1811;SDS011;904;47.814;11.134;2024-01-27T13:09:20;7.93;;;3.63;;
1811;SDS011;904;47.814;11.134;2024-01-27T13:11:47;8.47;;;3.50;;
1811;SDS011;904;47.814;11.134;2024-01-27T13:14:17;7.90;;;4.17;;
1811;SDS011;904;47.814;11.134;2024-01-27T13:16:47;5.60;;;3.40;;
1811;SDS011;904;47.814;11.134;2024-01-27T13:19:14;5.10;;;2.57;;
1811;SDS011;904;47.814;11.134;2024-01-27T13:21:43;9.90;;;4.10;;
1811;SDS011;904;47.814;11.134;2024-01-27T13:24:10;8.10;;;4.07;;
1811;SDS011;904;47.814;11.134;2024-01-27T13:26:38;9.37;;;3.57;;
1811;SDS011;904;47.814;11.134;2024-01-27T13:29:05;8.20;;;4.37;;
1811;SDS011;904;47.814;11.134;2024-01-27T13:31:32;7.10;;;3.20;;
1811;SDS011;904;47.814;11.134;2024-01-27T13:34:01;5.90;;;2.87;;
1811;SDS011;904;47.814;11.134;2024-01-27T13:36:29;7.30;;;3.30;;
1811;SDS011;904;47.814;11.134;2024-01-27T13:39:03;6.17;;;3.20;;
1811;SDS011;904;47.814;11.134;2024-01-27T13:41:30;7.80;;;4.27;;
1811;SDS011;904;47.814;11.134;2024-01-27T13:43:57;7.77;;;3.90;;
1811;SDS011;904;47.814;11.134;2024-01-27T13:46:24;8.30;;;4.67;;
1811;SDS011;904;47.814;11.134;2024-01-27T13:48:52;11.63;;;4.63;;
1811;SDS011;904;47.814;11.134;2024-01-27T13:51:20;7.47;;;4.20;;
1811;SDS011;904;47.814;11.134;2024-01-27T13:53:47;6.90;;;4.93;;
1811;SDS011;904;47.814;11.134;2024-01-27T13:56:14;7.50;;;4.90;;
1811;SDS011;904;47.814;11.134;2024-01-27T13:58:42;11.60;;;4.97;;
1811;SDS011;904;47.814;11.134;2024-01-27T14:01:09;6.20;;;4.13;;
1811;SDS011;904;47.814;11.134;2024-01-27T14:03:36;9.27;;;4.60;;
1811;SDS011;904;47.814;11.134;2024-01-27T14:06:04;6.53;;;3.83;;
1811;SDS011;904;47.814;11.134;2024-01-27T14:08:34;7.97;;;3.60;;
1811;SDS011;904;47.814;11.134;2024-01-27T14:11:00;5.40;;;3.87;;
1811;SDS011;904;47.814;11.134;2024-01-27T14:13:27;7.37;;;3.97;;
1811;SDS011;904;47.814;11.134;2024-01-27T14:15:54;6.10;;;3.80;;
1811;SDS011;904;47.814;11.134;2024-01-27T14:18:32;9.13;;;4.50;;
1811;SDS011;904;47.814;11.134;2024-01-27T14:21:00;4.10;;;3.30;;
1811;SDS011;904;47.814;11.134;2024-01-27T14:23:27;6.60;;;3.97;;
1811;SDS011;904;47.814;11.134;2024-01-27T14:25:58;10.27;;;4.10;;
1811;SDS011;904;47.814;11.134;2024-01-27T14:28:33;8.32;;;4.53;;
1811;SDS011;904;47.814;11.134;2024-01-27T14:31:01;5.95;;;4.20;;
1811;SDS011;904;47.814;11.134;2024-01-27T14:33:31;8.18;;;4.35;;
1811;SDS011;904;47.814;11.134;2024-01-27T14:35:58;10.93;;;4.73;;
1811;SDS011;904;47.814;11.134;2024-01-27T14:38:30;8.13;;;4.30;;
1811;SDS011;904;47.814;11.134;2024-01-27T14:41:02;7.70;;;5.33;;
1811;SDS011;904;47.814;11.134;2024-01-27T14:43:30;10.13;;;4.50;;
1811;SDS011;904;47.814;11.134;2024-01-27T14:45:57;10.17;;;4.70;;
1811;SDS011;904;47.814;11.134;2024-01-27T14:48:24;5.13;;;3.90;;
1811;SDS011;904;47.814;11.134;2024-01-27T14:50:51;7.70;;;4.43;;
1811;SDS011;904;47.814;11.134;2024-01-27T14:53:22;10.07;;;4.78;;
1811;SDS011;904;47.814;11.134;2024-01-27T14:55:49;6.40;;;4.20;;
1811;SDS011;904;47.814;11.134;2024-01-27T15:01:07;4.87;;;3.53;;
1811;SDS011;904;47.814;11.134;2024-01-27T15:03:38;5.28;;;3.60;;
1811;SDS011;904;47.814;11.134;2024-01-27T15:06:05;7.40;;;5.10;;
1811;SDS011;904;47.814;11.134;2024-01-27T15:08:33;5.30;;;3.95;;
1811;SDS011;904;47.814;11.134;2024-01-27T15:11:00;7.00;;;3.50;;
1811;SDS011;904;47.814;11.134;2024-01-27T15:13:28;6.97;;;3.90;;
1811;SDS011;904;47.814;11.134;2024-01-27T15:15:57;14.52;;;4.13;;
1811;SDS011;904;47.814;11.134;2024-01-27T15:18:23;5.45;;;3.78;;
1811;SDS011;904;47.814;11.134;2024-01-27T15:20:51;6.32;;;4.60;;